createdAt,value
2023-03-05T00:00:55.212Z,2.80
2023-03-05T00:03:22.152Z,2.70
2023-03-05T00:05:49.110Z,2.60
2023-03-05T00:08:16.020Z,2.33
2023-03-05T00:10:42.931Z,2.25
2023-03-05T00:13:09.868Z,1.80
2023-03-05T00:15:36.777Z,2.38
2023-03-05T00:18:03.732Z,2.38
2023-03-05T00:20:30.672Z,2.83
2023-03-05T00:22:57.574Z,2.40
2023-03-05T00:25:24.452Z,2.20
2023-03-05T00:27:51.356Z,2.13
2023-03-05T00:30:18.269Z,2.92
2023-03-05T00:32:45.169Z,2.28
2023-03-05T00:35:12.097Z,2.55
2023-03-05T00:37:39.068Z,2.58
2023-03-05T00:40:05.980Z,2.33
2023-03-05T00:42:32.943Z,2.55
2023-03-05T00:44:59.874Z,2.30
2023-03-05T00:47:26.834Z,2.75
2023-03-05T00:49:53.752Z,2.40
2023-03-05T00:52:29.773Z,2.28
2023-03-05T00:54:56.666Z,2.55
2023-03-05T00:57:23.633Z,2.95
2023-03-05T00:59:50.559Z,2.58
2023-03-05T01:02:17.502Z,2.35
2023-03-05T01:04:44.419Z,2.25
2023-03-05T01:07:11.476Z,2.20
2023-03-05T01:09:38.487Z,2.33
2023-03-05T01:12:05.428Z,2.25
2023-03-05T01:14:32.386Z,2.58
2023-03-05T01:16:59.292Z,2.40
2023-03-05T01:19:26.300Z,2.35
2023-03-05T01:21:53.250Z,2.10
2023-03-05T01:24:20.212Z,2.28
2023-03-05T01:26:47.112Z,2.45
2023-03-05T01:29:14.031Z,3.00
2023-03-05T01:31:41.361Z,1.90
2023-03-05T01:34:08.307Z,2.33
2023-03-05T01:36:35.310Z,2.30
2023-03-05T01:39:02.299Z,2.30
2023-03-05T01:41:29.199Z,2.10
2023-03-05T01:43:56.130Z,2.28
2023-03-05T01:46:23.054Z,1.90
2023-03-05T01:48:49.981Z,2.22
2023-03-05T01:51:16.911Z,2.17
2023-03-05T01:53:43.905Z,2.08
2023-03-05T01:56:10.866Z,2.45
2023-03-05T01:58:37.781Z,2.10
2023-03-05T02:01:04.732Z,2.35
2023-03-05T02:03:31.720Z,2.10
2023-03-05T02:05:58.682Z,2.20
2023-03-05T02:08:25.624Z,2.45
2023-03-05T02:10:52.542Z,2.30
2023-03-05T02:13:19.501Z,1.98
2023-03-05T02:15:46.548Z,2.45
2023-03-05T02:18:13.484Z,2.28
2023-03-05T02:20:40.404Z,2.70
2023-03-05T02:23:07.343Z,2.20
2023-03-05T02:25:34.314Z,1.90
2023-03-05T02:28:01.240Z,2.15
2023-03-05T02:30:28.153Z,2.10
2023-03-05T02:32:57.269Z,2.15
2023-03-05T02:35:24.261Z,2.13
2023-03-05T02:37:51.226Z,1.73
2023-03-05T02:40:18.155Z,1.98
2023-03-05T02:42:45.219Z,2.03
2023-03-05T02:45:12.128Z,2.42
2023-03-05T02:47:39.023Z,2.08
2023-03-05T02:50:05.982Z,1.85
2023-03-05T02:52:32.904Z,2.03
2023-03-05T02:54:59.821Z,1.73
2023-03-05T02:57:26.758Z,2.10
2023-03-05T02:59:53.724Z,2.40
2023-03-05T03:02:20.644Z,2.47
2023-03-05T03:04:47.605Z,2.53
2023-03-05T03:07:14.506Z,1.88
2023-03-05T03:09:41.431Z,2.00
2023-03-05T03:12:08.315Z,2.22
2023-03-05T03:14:35.221Z,2.13
2023-03-05T03:17:02.177Z,2.03
2023-03-05T03:19:29.174Z,2.03
2023-03-05T03:21:56.066Z,2.50
2023-03-05T03:24:23.041Z,2.40
2023-03-05T03:26:49.979Z,2.47
2023-03-05T03:29:16.894Z,2.70
2023-03-05T03:31:43.804Z,2.28
2023-03-05T03:34:10.730Z,2.60
2023-03-05T03:36:37.652Z,2.20
2023-03-05T03:39:04.579Z,2.17
2023-03-05T03:41:31.472Z,2.47
2023-03-05T03:43:59.654Z,2.50
2023-03-05T03:46:26.606Z,2.00
2023-03-05T03:48:53.594Z,2.65
2023-03-05T03:51:20.488Z,2.08
2023-03-05T03:53:47.400Z,2.42
2023-03-05T03:56:14.276Z,2.35
2023-03-05T03:58:41.186Z,2.28
2023-03-05T04:01:08.094Z,2.88
2023-03-05T04:03:35.052Z,2.00
2023-03-05T04:06:01.955Z,2.50
2023-03-05T04:08:28.890Z,2.03
2023-03-05T04:10:55.770Z,2.25
2023-03-05T04:13:22.705Z,2.28
2023-03-05T04:15:49.631Z,2.05
2023-03-05T04:18:16.586Z,1.92
2023-03-05T04:20:43.493Z,2.20
2023-03-05T04:23:10.391Z,2.38
2023-03-05T04:25:37.274Z,1.73
2023-03-05T04:28:04.202Z,2.10
2023-03-05T04:30:31.111Z,2.03
2023-03-05T04:32:58.041Z,2.20
2023-03-05T04:35:25.008Z,2.03
2023-03-05T04:37:51.939Z,2.30
2023-03-05T04:40:18.862Z,2.33
2023-03-05T04:42:45.737Z,2.50
2023-03-05T04:45:12.664Z,2.20
2023-03-05T04:47:39.564Z,2.20
2023-03-05T04:50:06.493Z,2.20
2023-03-05T04:52:33.403Z,2.22
2023-03-05T04:55:00.325Z,1.92
2023-03-05T04:57:27.222Z,2.08
2023-03-05T04:59:54.147Z,2.13
2023-03-05T05:02:21.054Z,2.28
2023-03-05T05:04:48.141Z,2.15
2023-03-05T05:07:15.105Z,1.92
2023-03-05T05:09:42.016Z,2.10
2023-03-05T05:12:08.915Z,2.13
2023-03-05T05:14:35.855Z,2.00
2023-03-05T05:17:02.897Z,1.80
2023-03-05T05:19:29.919Z,2.17
2023-03-05T05:21:56.851Z,1.88
2023-03-05T05:24:23.764Z,1.65
2023-03-05T05:26:50.660Z,2.15
2023-03-05T05:29:17.589Z,2.20
2023-03-05T05:31:44.581Z,2.13
2023-03-05T05:34:11.557Z,1.70
2023-03-05T05:36:38.477Z,1.80
2023-03-05T05:39:05.413Z,1.33
2023-03-05T05:41:32.352Z,1.65
2023-03-05T05:43:59.280Z,1.85
2023-03-05T05:46:26.220Z,1.30
2023-03-05T05:48:53.176Z,1.88
2023-03-05T05:51:20.214Z,1.77
2023-03-05T05:53:48.252Z,2.03
2023-03-05T05:56:15.177Z,1.80
2023-03-05T05:58:42.134Z,2.28
2023-03-05T06:01:09.040Z,1.70
2023-03-05T06:03:35.961Z,1.88
2023-03-05T06:06:02.892Z,1.70
2023-03-05T06:08:32.888Z,2.25
2023-03-05T06:10:59.820Z,1.58
2023-03-05T06:13:26.745Z,1.90
2023-03-05T06:15:53.653Z,1.70
2023-03-05T06:18:20.773Z,1.80
2023-03-05T06:20:48.272Z,1.85
2023-03-05T06:23:15.178Z,1.80
2023-03-05T06:25:42.149Z,1.55
2023-03-05T06:28:09.055Z,1.90
2023-03-05T06:30:36.015Z,1.58
2023-03-05T06:33:02.998Z,1.95
2023-03-05T06:35:30.138Z,1.90
2023-03-05T06:37:57.213Z,2.13
2023-03-05T06:40:24.155Z,2.15
2023-03-05T06:42:51.067Z,2.10
2023-03-05T06:45:18.024Z,2.00
2023-03-05T06:47:44.919Z,1.73
2023-03-05T06:50:12.103Z,2.10
2023-03-05T06:52:38.977Z,1.63
2023-03-05T06:55:06.044Z,1.60
2023-03-05T06:57:32.939Z,1.70
2023-03-05T06:59:59.845Z,2.45
2023-03-05T07:02:26.801Z,1.58
2023-03-05T07:04:53.743Z,1.90
2023-03-05T07:07:20.647Z,1.67
2023-03-05T07:09:47.539Z,1.88
2023-03-05T07:12:14.461Z,2.10
2023-03-05T07:14:41.376Z,1.90
2023-03-05T07:17:08.268Z,1.70
2023-03-05T07:19:35.201Z,1.90
2023-03-05T07:22:02.084Z,1.83
2023-03-05T07:24:29.030Z,1.90
2023-03-05T07:26:56.011Z,2.20
2023-03-05T07:29:22.923Z,2.08
2023-03-05T07:31:49.823Z,2.38
2023-03-05T07:34:16.745Z,2.25
2023-03-05T07:36:43.810Z,2.15
2023-03-05T07:39:10.797Z,2.03
2023-03-05T07:41:37.697Z,2.67
2023-03-05T07:44:04.619Z,1.92
2023-03-05T07:46:31.621Z,2.20
2023-03-05T07:48:58.741Z,1.92
2023-03-05T07:51:25.782Z,2.10
2023-03-05T07:53:52.720Z,1.88
2023-03-05T07:56:19.681Z,2.08
2023-03-05T07:58:49.659Z,2.30
2023-03-05T08:01:16.595Z,2.00
2023-03-05T08:03:43.555Z,1.90
2023-03-05T08:06:10.549Z,1.85
2023-03-05T08:08:37.493Z,1.92
2023-03-05T08:11:04.484Z,2.03
2023-03-05T08:13:31.439Z,2.15
2023-03-05T08:15:58.433Z,1.90
2023-03-05T08:18:25.434Z,1.90
2023-03-05T08:20:52.393Z,2.35
2023-03-05T08:23:19.337Z,2.33
2023-03-05T08:25:46.317Z,1.88
2023-03-05T08:28:13.282Z,2.00
2023-03-05T08:30:40.346Z,1.80
2023-03-05T08:33:07.252Z,1.98
2023-03-05T08:35:34.302Z,1.95
2023-03-05T08:38:01.298Z,1.80
2023-03-05T08:40:28.404Z,2.13
2023-03-05T08:42:55.353Z,2.13
2023-03-05T08:45:22.278Z,1.92
2023-03-05T08:47:49.286Z,2.05
2023-03-05T08:50:16.236Z,1.80
2023-03-05T08:52:43.197Z,2.17
2023-03-05T08:55:10.161Z,1.85
2023-03-05T08:57:37.152Z,1.90
2023-03-05T09:00:04.110Z,1.90
2023-03-05T09:02:31.035Z,1.98
2023-03-05T09:04:58.162Z,1.85
2023-03-05T09:07:25.124Z,1.80
2023-03-05T09:09:52.047Z,1.90
2023-03-05T09:12:18.990Z,1.90
2023-03-05T09:14:46.021Z,1.60
2023-03-05T09:17:12.951Z,1.70
2023-03-05T09:19:39.869Z,1.95
2023-03-05T09:22:06.783Z,2.75
2023-03-05T09:24:33.724Z,2.28
2023-03-05T09:27:00.659Z,4.55
2023-03-05T09:29:27.628Z,3.72
2023-03-05T09:31:54.645Z,2.50
2023-03-05T09:34:21.582Z,2.30
2023-03-05T09:36:48.517Z,2.60
2023-03-05T09:39:15.638Z,2.40
2023-03-05T09:41:42.784Z,1.73
2023-03-05T09:44:13.828Z,2.00
2023-03-05T09:46:40.890Z,2.00
2023-03-05T09:49:13.227Z,2.25
2023-03-05T09:51:43.565Z,3.72
2023-03-05T09:54:13.921Z,4.07
2023-03-05T09:56:40.966Z,3.33
2023-03-05T09:59:07.972Z,2.83
2023-03-05T10:01:35.044Z,2.60
2023-03-05T10:04:03.599Z,1.80
2023-03-05T10:06:30.604Z,2.10
2023-03-05T10:09:00.701Z,1.90
2023-03-05T10:11:27.771Z,1.93
2023-03-05T10:13:54.941Z,2.05
2023-03-05T10:16:21.919Z,2.00
2023-03-05T10:18:48.909Z,2.08
2023-03-05T10:21:15.819Z,1.80
2023-03-05T10:23:42.728Z,2.45
2023-03-05T10:26:09.672Z,1.70
2023-03-05T10:28:36.594Z,2.10
2023-03-05T10:31:03.546Z,2.03
2023-03-05T10:33:33.493Z,2.08
2023-03-05T10:36:00.657Z,1.88
2023-03-05T10:38:27.583Z,1.58
2023-03-05T10:40:54.532Z,1.70
2023-03-05T10:43:21.430Z,2.00
2023-03-05T10:45:48.417Z,2.00
2023-03-05T10:48:15.615Z,2.30
2023-03-05T10:50:42.603Z,1.80
2023-03-05T10:53:09.502Z,2.00
2023-03-05T10:55:36.451Z,2.00
2023-03-05T10:58:03.373Z,2.08
2023-03-05T11:00:30.310Z,1.95
2023-03-05T11:02:57.219Z,1.75
2023-03-05T11:05:24.130Z,1.88
2023-03-05T11:07:51.109Z,2.33
2023-03-05T11:10:18.107Z,2.70
2023-03-05T11:12:45.104Z,2.20
2023-03-05T11:15:12.017Z,2.10
2023-03-05T11:17:39.034Z,1.90
2023-03-05T11:20:06.001Z,1.73
2023-03-05T11:22:32.940Z,2.00
2023-03-05T11:24:59.873Z,1.77
2023-03-05T11:27:26.884Z,1.95
2023-03-05T11:29:53.828Z,1.98
2023-03-05T11:32:20.915Z,1.98
2023-03-05T11:34:47.877Z,1.90
2023-03-05T11:37:14.836Z,1.92
2023-03-05T11:39:41.835Z,1.83
2023-03-05T11:42:08.766Z,2.05
2023-03-05T11:44:35.690Z,2.13
2023-03-05T11:47:03.311Z,2.00
2023-03-05T11:49:30.351Z,2.00
2023-03-05T11:51:58.440Z,2.35
2023-03-05T11:54:25.378Z,1.70
2023-03-05T11:56:52.412Z,2.22
2023-03-05T11:59:19.394Z,1.83
2023-03-05T12:01:46.434Z,2.05
2023-03-05T12:04:13.424Z,1.77
2023-03-05T12:06:42.568Z,2.10
2023-03-05T12:09:12.898Z,1.90
2023-03-05T12:11:40.019Z,1.90
2023-03-05T12:14:06.975Z,1.98
2023-03-05T12:16:33.976Z,2.10
2023-03-05T12:19:00.974Z,2.00
2023-03-05T12:21:28.008Z,1.80
2023-03-05T12:23:54.934Z,2.15
2023-03-05T12:26:21.893Z,2.15
2023-03-05T12:28:48.816Z,1.88
2023-03-05T12:31:15.931Z,1.95
2023-03-05T12:33:42.935Z,1.90
2023-03-05T12:36:10.484Z,1.80
2023-03-05T12:38:37.410Z,1.65
2023-03-05T12:41:05.440Z,1.67
2023-03-05T12:43:32.384Z,1.90
2023-03-05T12:45:59.349Z,1.80
2023-03-05T12:48:26.436Z,1.80
2023-03-05T12:50:53.519Z,1.58
2023-03-05T12:53:20.443Z,2.40
2023-03-05T12:55:47.444Z,2.60
2023-03-05T12:58:14.470Z,2.25
2023-03-05T13:00:41.487Z,2.15
2023-03-05T13:03:08.454Z,2.38
2023-03-05T13:05:35.402Z,2.28
2023-03-05T13:08:02.540Z,2.10
2023-03-05T13:10:29.607Z,2.03
2023-03-05T13:12:56.626Z,1.90
2023-03-05T13:15:23.560Z,1.73
2023-03-05T13:17:50.712Z,1.77
2023-03-05T13:20:17.634Z,1.90
2023-03-05T13:22:44.609Z,1.65
2023-03-05T13:27:58.686Z,2.13
2023-03-05T13:30:25.686Z,1.90
2023-03-05T13:32:52.909Z,2.00
2023-03-05T13:35:19.845Z,1.92
2023-03-05T13:37:46.758Z,2.08
2023-03-05T13:40:14.768Z,2.00
2023-03-05T13:42:41.736Z,1.90
2023-03-05T13:45:08.687Z,2.20
2023-03-05T13:47:37.407Z,2.20
2023-03-05T13:50:04.334Z,2.00
2023-03-05T13:52:31.284Z,2.47
2023-03-05T13:54:58.181Z,2.20
2023-03-05T13:57:25.110Z,1.92
2023-03-05T13:59:52.011Z,2.15
2023-03-05T14:02:19.637Z,1.92
2023-03-05T14:04:46.667Z,1.77
2023-03-05T14:07:13.661Z,2.08
2023-03-05T14:09:40.577Z,2.05
2023-03-05T14:12:07.616Z,2.00
2023-03-05T14:14:34.695Z,2.30
2023-03-05T14:17:01.731Z,2.58
2023-03-05T14:19:28.758Z,2.00
2023-03-05T14:21:55.732Z,2.10
2023-03-05T14:24:22.638Z,2.00
2023-03-05T14:26:49.574Z,2.17
2023-03-05T14:29:16.455Z,2.50
2023-03-05T14:31:43.399Z,2.95
2023-03-05T14:34:10.330Z,3.40
2023-03-05T14:36:37.239Z,2.67
2023-03-05T14:39:04.133Z,2.63
2023-03-05T14:41:31.047Z,2.88
2023-03-05T14:43:57.988Z,2.38
2023-03-05T14:46:28.268Z,2.20
2023-03-05T14:49:03.409Z,2.40
2023-03-05T14:51:30.401Z,2.47
2023-03-05T14:53:57.365Z,2.70
2023-03-05T14:56:24.315Z,2.50
2023-03-05T14:58:51.375Z,2.40
2023-03-05T15:01:18.342Z,2.20
2023-03-05T15:03:45.299Z,1.90
2023-03-05T15:06:12.210Z,2.05
2023-03-05T15:08:39.183Z,1.88
2023-03-05T15:11:06.156Z,1.65
2023-03-05T15:13:33.103Z,1.50
2023-03-05T15:16:00.015Z,2.30
2023-03-05T15:18:27.102Z,2.45
2023-03-05T15:20:54.128Z,1.83
2023-03-05T15:23:21.117Z,2.42
2023-03-05T15:28:31.733Z,3.15
2023-03-05T15:31:00.271Z,2.42
2023-03-05T15:33:27.593Z,3.15
2023-03-05T15:38:35.477Z,2.05
2023-03-05T15:41:02.459Z,1.95
2023-03-05T15:43:29.414Z,1.90
2023-03-05T15:45:56.466Z,1.88
2023-03-05T15:48:23.519Z,1.70
2023-03-05T15:50:50.570Z,1.80
2023-03-05T15:53:17.628Z,1.70
2023-03-05T15:55:44.648Z,1.83
2023-03-05T15:58:11.627Z,1.63
2023-03-05T16:00:38.600Z,2.30
2023-03-05T16:03:05.654Z,2.25
2023-03-05T16:05:32.836Z,2.13
2023-03-05T16:07:59.842Z,2.20
2023-03-05T16:10:26.877Z,2.30
2023-03-05T16:12:53.818Z,2.17
2023-03-05T16:15:20.806Z,2.40
2023-03-05T16:17:47.780Z,1.90
2023-03-05T16:20:14.734Z,1.90
2023-03-05T16:22:41.686Z,2.85
2023-03-05T16:25:08.736Z,3.50
2023-03-05T16:27:35.741Z,3.53
2023-03-05T16:30:02.723Z,3.55
2023-03-05T16:32:29.739Z,2.50
2023-03-05T16:34:56.771Z,2.60
2023-03-05T16:37:23.778Z,2.90
2023-03-05T16:39:50.744Z,3.03
2023-03-05T16:42:17.763Z,2.50
2023-03-05T16:44:44.674Z,2.50
2023-03-05T16:47:11.569Z,2.70
2023-03-05T16:49:40.470Z,2.40
2023-03-05T16:52:18.720Z,2.80
2023-03-05T16:54:46.393Z,2.58
2023-03-05T16:57:13.419Z,2.35
2023-03-05T16:59:44.855Z,2.70
2023-03-05T17:02:24.980Z,2.42
2023-03-05T17:04:51.941Z,2.08
2023-03-05T17:07:19.016Z,1.95
2023-03-05T17:09:45.948Z,2.13
2023-03-05T17:12:12.852Z,2.35
2023-03-05T17:14:40.043Z,2.05
2023-03-05T17:17:06.984Z,3.13
2023-03-05T17:19:33.995Z,2.92
2023-03-05T17:22:01.044Z,2.50
2023-03-05T17:24:28.207Z,2.17
2023-03-05T17:26:55.276Z,2.60
2023-03-05T17:29:22.454Z,2.80
2023-03-05T17:31:49.568Z,2.35
2023-03-05T17:34:16.782Z,2.50
2023-03-05T17:44:59.009Z,2.05
2023-03-05T17:47:31.778Z,2.08
2023-03-05T17:50:06.365Z,2.15
2023-03-05T17:52:33.451Z,2.40
2023-03-05T18:00:44.747Z,1.85
2023-03-05T18:03:14.950Z,2.25
2023-03-05T18:05:41.925Z,2.20
2023-03-05T18:08:08.842Z,2.33
2023-03-05T18:10:44.914Z,2.38
2023-03-05T18:13:11.963Z,2.83
2023-03-05T18:15:38.989Z,2.97
2023-03-05T18:18:06.047Z,2.80
2023-03-05T18:20:33.253Z,3.35
2023-03-05T18:23:00.263Z,2.85
2023-03-05T18:25:27.251Z,2.88
2023-03-05T18:27:58.362Z,2.90
2023-03-05T18:30:27.602Z,2.50
2023-03-05T18:32:54.582Z,3.28
2023-03-05T18:35:21.508Z,3.10
2023-03-05T18:37:54.932Z,2.60
2023-03-05T18:40:22.020Z,2.78
2023-03-05T18:42:49.110Z,2.30
2023-03-05T18:45:16.155Z,2.40
2023-03-05T18:47:43.103Z,2.53
2023-03-05T18:56:02.638Z,2.42
2023-03-05T18:58:36.896Z,2.67
2023-03-05T19:01:05.062Z,2.78
2023-03-05T19:03:33.706Z,2.75
2023-03-05T19:06:00.951Z,2.38
2023-03-05T19:08:28.978Z,2.35
2023-03-05T19:13:36.880Z,2.55
2023-03-05T19:16:06.201Z,1.92
2023-03-05T19:18:33.293Z,2.88
2023-03-05T19:21:04.682Z,2.80
2023-03-05T19:23:31.925Z,2.55
2023-03-05T19:26:25.750Z,2.45
2023-03-05T19:28:53.321Z,2.42
2023-03-05T19:31:25.276Z,2.63
2023-03-05T19:33:52.319Z,2.20
2023-03-05T19:39:23.213Z,3.10
2023-03-05T19:42:02.130Z,2.22
2023-03-05T19:44:29.164Z,2.30
2023-03-05T19:46:58.356Z,2.10
2023-03-05T19:49:25.277Z,2.85
2023-03-05T19:51:52.216Z,2.20
2023-03-05T19:54:19.162Z,2.47
2023-03-05T19:56:47.157Z,2.50
2023-03-05T19:59:14.154Z,2.30
2023-03-05T20:04:40.698Z,2.50
2023-03-05T20:07:14.231Z,3.55
2023-03-05T20:09:53.842Z,3.38
2023-03-05T20:12:22.447Z,3.40
2023-03-05T20:14:49.471Z,3.22
2023-03-05T20:17:16.591Z,2.90
2023-03-05T20:22:24.545Z,2.58
2023-03-05T20:24:51.686Z,2.42
2023-03-05T20:27:18.700Z,2.35
2023-03-05T20:29:45.842Z,2.47
2023-03-05T20:32:13.013Z,2.40
2023-03-05T20:34:40.294Z,2.25
2023-03-05T20:37:13.034Z,2.03
2023-03-05T20:39:40.409Z,2.38
2023-03-05T20:42:09.500Z,2.10
2023-03-05T20:44:39.402Z,2.08
2023-03-05T20:47:06.563Z,2.10
2023-03-05T20:49:33.558Z,2.25
2023-03-05T20:52:04.875Z,2.13
2023-03-05T20:56:58.856Z,1.55
2023-03-05T20:59:25.807Z,1.77
2023-03-05T21:01:52.724Z,2.15
2023-03-05T21:04:19.728Z,1.90
2023-03-05T21:06:46.668Z,1.70
2023-03-05T21:09:13.630Z,1.90
2023-03-05T21:11:40.648Z,2.05
2023-03-05T21:14:07.594Z,2.22
2023-03-05T21:16:34.646Z,2.08
2023-03-05T21:19:02.441Z,1.92
2023-03-05T21:21:29.603Z,2.17
2023-03-05T21:23:56.599Z,2.08
2023-03-05T21:26:23.636Z,1.92
2023-03-05T21:28:50.633Z,2.03
2023-03-05T21:31:17.922Z,1.90
2023-03-05T21:33:44.900Z,1.98
2023-03-05T21:36:11.867Z,1.83
2023-03-05T21:38:41.299Z,1.70
2023-03-05T21:41:08.315Z,1.85
2023-03-05T21:43:35.332Z,1.95
2023-03-05T21:46:02.461Z,1.75
2023-03-05T21:48:29.436Z,1.60
2023-03-05T21:50:56.487Z,1.88
2023-03-05T21:53:23.659Z,1.90
2023-03-05T21:55:50.703Z,1.83
2023-03-05T21:58:21.851Z,1.80
2023-03-05T22:00:51.981Z,2.13
2023-03-05T22:03:20.164Z,2.08
2023-03-05T22:05:53.313Z,2.00
2023-03-05T22:08:20.304Z,2.10
2023-03-05T22:10:47.383Z,2.45
2023-03-05T22:13:15.585Z,2.08
2023-03-05T22:15:42.558Z,2.20
